Time;durP1;ratioP1;P1;durP2;ratioP2;P2;SDS_P1;SDS_P2;PMS_P1;PMS_P2;Temp;Humidity;BMP_temperature;BMP_pressure;BME280_temperature;BME280_humidity;BME280_pressure;Samples;Min_cycle;Max_cycle;Signal;HPM_P1;HPM_P2
2020/12/28 00:01:42;;;;;;;239.40;119.70;;;;;;;0.85;69.04;93673.16;1777063;80;22107;-50
2020/12/28 00:04:10;;;;;;;233.57;119.85;;;;;;;0.91;69.09;93655.84;1777784;80;21076;-49
2020/12/28 00:06:38;;;;;;;235.65;118.40;;;;;;;0.92;68.82;93662.20;1777741;79;21119;-49
2020/12/28 00:09:07;;;;;;;236.77;121.00;;;;;;;0.94;69.09;93667.22;1777751;80;21265;-49
2020/12/28 00:11:35;;;;;;;221.28;114.37;;;;;;;1.04;69.05;93671.09;1777830;80;21147;-48
2020/12/28 00:14:03;;;;;;;210.02;108.83;;;;;;;1.17;68.71;93673.37;1777826;79;21390;-48
2020/12/28 00:16:32;;;;;;;209.07;109.83;;;;;;;1.23;68.31;93666.31;1777765;80;21056;-49
2020/12/28 00:19:00;;;;;;;213.68;113.25;;;;;;;1.18;68.28;93665.42;1777827;80;21074;-48
2020/12/28 00:21:28;;;;;;;188.10;100.22;;;;;;;1.14;68.43;93652.53;1777766;80;21133;-50
2020/12/28 00:23:56;;;;;;;211.35;107.27;;;;;;;1.19;68.17;93659.42;1777924;80;21509;-50
2020/12/28 00:26:25;;;;;;;251.55;117.40;;;;;;;1.07;68.18;93651.31;1777886;80;21442;-48
2020/12/28 00:28:53;;;;;;;258.57;127.35;;;;;;;0.95;68.40;93647.84;1777950;80;21087;-49
2020/12/28 00:31:21;;;;;;;239.97;119.37;;;;;;;0.82;68.75;93648.27;1777967;80;21056;-48
2020/12/28 00:33:49;;;;;;;250.82;123.28;;;;;;;0.81;69.10;93654.84;1777951;80;21123;-49
2020/12/28 00:36:16;;;;;;;218.88;107.35;;;;;;;0.87;69.27;93655.91;1777974;80;21131;-49
2020/12/28 00:38:44;;;;;;;254.55;124.50;;;;;;;0.92;68.83;93654.08;1777932;80;21401;-48
2020/12/28 00:41:13;;;;;;;268.27;133.45;;;;;;;0.86;69.01;93648.98;1777950;80;21067;-48
2020/12/28 00:43:43;;;;;;;273.73;143.50;;;;;;;0.87;69.12;93636.97;1777963;80;21055;-49
2020/12/28 00:46:13;;;;;;;345.63;171.15;;;;;;;0.94;69.37;93635.48;1777961;79;21091;-49
2020/12/28 00:48:41;;;;;;;246.22;125.62;;;;;;;1.15;69.29;93616.15;1777957;79;21579;-49
2020/12/28 00:51:13;;;;;;;241.27;130.55;;;;;;;1.33;68.71;93612.52;1777963;80;21335;-50
2020/12/28 00:53:42;;;;;;;241.40;127.35;;;;;;;1.37;68.46;93609.18;1778182;80;21103;-49
2020/12/28 00:56:13;;;;;;;259.07;134.47;;;;;;;1.40;68.44;93598.08;1753745;80;21051;-49
2020/12/28 00:58:43;;;;;;;261.27;135.73;;;;;;;1.46;68.23;93602.60;1778218;80;21055;-49
2020/12/28 01:01:11;;;;;;;255.57;127.27;;;;;;;1.53;68.08;93588.91;1777975;80;21111;-49
2020/12/28 01:03:39;;;;;;;239.20;128.50;;;;;;;1.58;67.99;93580.30;1777951;80;21348;-47
2020/12/28 01:06:21;;;;;;;233.78;122.75;;;;;;;1.64;67.69;93571.84;1777405;80;21095;-49
2020/12/28 01:08:57;;;;;;;230.57;123.50;;;;;;;1.70;67.35;93585.07;1775188;80;21114;-48
2020/12/28 01:11:24;;;;;;;231.95;125.33;;;;;;;1.53;67.46;93565.88;1777874;80;21079;-49
2020/12/28 01:13:55;;;;;;;236.92;121.10;;;;;;;1.34;67.77;93559.87;1777373;80;21181;-49
2020/12/28 01:16:23;;;;;;;222.67;120.57;;;;;;;1.25;68.35;93551.55;1777946;80;21203;-49
2020/12/28 01:18:51;;;;;;;247.37;123.78;;;;;;;1.29;68.37;93546.08;1777987;80;21083;-49
2020/12/28 01:21:22;;;;;;;239.60;119.05;;;;;;;1.29;68.59;93542.77;1777361;80;21095;-48
2020/12/28 01:23:51;;;;;;;202.30;101.18;;;;;;;1.28;68.12;93558.84;1777943;79;21047;-48
2020/12/28 01:26:19;;;;;;;214.08;102.95;;;;;;;1.23;68.38;93534.19;1777919;80;21087;-49
2020/12/28 01:28:49;;;;;;;216.30;110.12;;;;;;;1.17;68.24;93533.90;1777583;80;21270;-48
2020/12/28 01:31:18;;;;;;;187.62;92.45;;;;;;;1.13;68.68;93514.87;1777870;80;21123;-48
2020/12/28 01:34:06;;;;;;;203.12;105.35;;;;;;;1.20;68.69;93528.25;1777971;80;21055;-48
2020/12/28 01:36:36;;;;;;;187.30;98.03;;;;;;;1.20;68.67;93529.03;1777420;80;21574;-49
2020/12/28 01:39:05;;;;;;;202.78;105.20;;;;;;;1.25;68.53;93523.12;1777307;80;21146;-49
2020/12/28 01:41:33;;;;;;;208.63;109.05;;;;;;;1.27;68.68;93518.62;1778021;80;22325;-49
2020/12/28 01:44:02;;;;;;;203.80;101.65;;;;;;;1.35;68.56;93508.58;1777875;79;21060;-48
2020/12/28 01:46:30;;;;;;;220.10;115.22;;;;;;;1.33;68.08;93496.05;1777912;80;21040;-48
2020/12/28 01:48:59;;;;;;;212.63;113.72;;;;;;;1.16;68.28;93503.20;1777768;79;21095;-49
2020/12/28 01:51:27;;;;;;;196.60;105.80;;;;;;;1.04;68.62;93497.82;1777938;79;21056;-49
2020/12/28 01:53:55;;;;;;;212.63;110.45;;;;;;;0.99;68.76;93496.94;1778021;80;21784;-49
2020/12/28 01:56:39;;;;;;;187.15;104.97;;;;;;;0.95;68.95;93493.54;1873611;76;22657;-48
2020/12/28 01:59:08;;;;;;;205.07;109.32;;;;;;;0.89;69.43;93493.08;1841606;78;21046;-49
2020/12/28 02:01:40;;;;;;;197.35;104.30;;;;;;;0.97;69.54;93476.28;1811370;78;21192;-48
2020/12/28 02:04:10;;;;;;;188.57;103.70;;;;;;;1.07;69.28;93490.79;1841687;77;21062;-49
2020/12/28 02:06:39;;;;;;;182.17;93.00;;;;;;;1.12;69.32;93495.12;1811317;78;21066;-49
2020/12/28 02:09:08;;;;;;;194.80;102.22;;;;;;;1.21;69.06;93486.45;1841567;78;21065;-49
2020/12/28 02:11:36;;;;;;;180.48;101.18;;;;;;;1.19;69.16;93482.82;1841583;78;21057;-49
2020/12/28 02:14:04;;;;;;;174.72;95.95;;;;;;;1.25;68.99;93475.72;1841540;78;21190;-48
2020/12/28 02:16:34;;;;;;;193.62;104.67;;;;;;;1.29;68.88;93475.66;1840340;78;21145;-48
2020/12/28 02:19:04;;;;;;;200.85;107.43;;;;;;;1.25;68.87;93467.59;1840961;78;21144;-49
2020/12/28 02:21:37;;;;;;;196.85;104.97;;;;;;;1.16;69.06;93470.09;1841520;78;21553;-48
2020/12/28 02:24:05;;;;;;;201.73;105.90;;;;;;;1.13;69.24;93464.16;1841585;78;21132;-47
2020/12/28 02:26:34;;;;;;;180.52;97.92;;;;;;;1.17;69.35;93453.27;1841366;78;22232;-49
2020/12/28 02:29:02;;;;;;;197.72;101.53;;;;;;;1.17;69.64;93460.04;1841476;78;21137;-49
2020/12/28 02:31:31;;;;;;;229.13;122.02;;;;;;;1.25;69.30;93449.99;1841519;78;21130;-50
2020/12/28 02:34:06;;;;;;;243.22;129.57;;;;;;;1.15;69.29;93448.26;1790054;78;21061;-49
2020/12/28 02:36:36;;;;;;;229.78;122.90;;;;;;;1.17;69.42;93443.19;1841307;77;21506;-48
2020/12/28 02:39:05;;;;;;;407.70;213.82;;;;;;;1.20;69.25;93448.36;1824328;77;21364;-48
2020/12/28 02:41:33;;;;;;;290.27;153.02;;;;;;;1.23;69.43;93442.88;1808431;79;21144;-49
2020/12/28 02:44:20;;;;;;;242.03;131.07;;;;;;;1.37;69.13;93442.58;1808476;79;21077;-48
2020/12/28 02:47:07;;;;;;;304.23;152.30;;;;;;;1.41;68.76;93428.94;1808457;79;21065;-49
2020/12/28 02:49:53;;;;;;;239.53;125.75;;;;;;;1.38;68.94;93427.08;1808526;79;21118;-48
2020/12/28 02:52:39;;;;;;;315.85;148.22;;;;;;;1.33;68.77;93409.37;1808531;79;21199;-48
2020/12/28 02:55:25;;;;;;;210.32;110.83;;;;;;;1.19;68.84;93397.52;1810436;79;21152;-50
2020/12/28 02:58:11;;;;;;;198.68;104.72;;;;;;;1.02;69.25;93401.37;1814280;79;21580;-48
2020/12/28 03:01:00;;;;;;;205.30;108.78;;;;;;;0.87;69.55;93395.30;1814218;79;21069;-48
2020/12/28 03:03:46;;;;;;;213.25;112.17;;;;;;;0.82;69.99;93393.87;1814224;79;21049;-48
2020/12/28 03:06:33;;;;;;;243.60;129.95;;;;;;;0.90;70.11;93397.94;1813940;79;21141;-49
2020/12/28 03:09:20;;;;;;;194.28;104.70;;;;;;;1.03;70.23;93405.59;1813573;79;21089;-48
2020/12/28 03:12:07;;;;;;;212.02;117.13;;;;;;;1.16;69.83;93407.06;1813592;79;21033;-48
2020/12/28 03:14:53;;;;;;;227.47;127.58;;;;;;;1.14;69.87;93396.64;1813598;79;21619;-48
2020/12/28 03:17:39;;;;;;;183.52;101.65;;;;;;;1.23;70.08;93403.61;1813638;79;21049;-48
2020/12/28 03:20:25;;;;;;;180.30;98.47;;;;;;;1.39;69.64;93395.52;1813595;79;21349;-48
2020/12/28 03:23:12;;;;;;;188.93;102.17;;;;;;;1.31;69.13;93382.55;1813560;79;21111;-49
2020/12/28 03:26:00;;;;;;;203.55;110.40;;;;;;;1.08;69.28;93367.77;1813621;79;21093;-48
2020/12/28 03:28:46;;;;;;;196.65;100.80;;;;;;;0.88;69.61;93362.41;1813677;78;21057;-48
2020/12/28 03:31:32;;;;;;;215.15;115.82;;;;;;;0.77;69.95;93372.69;1813662;79;21124;-48
2020/12/28 03:34:28;;;;;;;193.55;108.47;;;;;;;0.71;70.58;93373.02;1873661;76;22723;-49
2020/12/28 03:37:15;;;;;;;214.20;113.37;;;;;;;0.60;70.52;93368.40;1841575;77;21089;-48
2020/12/28 03:40:01;;;;;;;204.60;111.12;;;;;;;0.56;71.01;93363.66;1811608;78;21209;-49
2020/12/28 03:42:57;;;;;;;212.53;117.60;;;;;;;0.74;70.94;93366.77;1873629;76;21975;-48
2020/12/28 03:45:43;;;;;;;209.77;113.37;;;;;;;0.78;71.02;93368.80;1841579;77;21097;-48
2020/12/28 03:48:29;;;;;;;234.57;127.42;;;;;;;0.91;70.88;93364.86;1841586;78;21364;-48
2020/12/28 03:51:15;;;;;;;242.53;133.55;;;;;;;1.11;70.65;93364.25;1841525;77;21085;-48
2020/12/28 03:54:01;;;;;;;330.32;169.97;;;;;;;1.21;70.18;93355.88;1841541;78;21129;-49
2020/12/28 03:56:48;;;;;;;304.95;160.93;;;;;;;1.18;70.08;93351.28;1841601;78;21114;-48
2020/12/28 03:59:35;;;;;;;206.38;114.80;;;;;;;1.09;70.01;93348.41;1841724;78;21463;-50
2020/12/28 04:02:21;;;;;;;200.28;113.17;;;;;;;0.94;70.17;93352.61;1841496;77;21357;-49
2020/12/28 04:05:08;;;;;;;193.65;105.15;;;;;;;0.93;70.70;93362.52;1841544;77;21101;-49
2020/12/28 04:07:55;;;;;;;188.45;99.00;;;;;;;1.06;70.52;93349.83;1841578;78;21030;-48
2020/12/28 04:10:34;;;;;;;187.00;103.95;;;;;;;1.20;69.90;93343.53;1734568;82;21104;-48
2020/12/28 04:13:19;;;;;;;188.42;102.25;;;;;;;1.17;69.74;93339.53;1838863;78;21152;-49
2020/12/28 04:15:49;;;;;;;211.65;111.25;;;;;;;1.17;69.79;93344.95;1841529;77;21089;-48
2020/12/28 04:18:17;;;;;;;199.17;108.00;;;;;;;1.07;69.61;93344.02;1841482;78;21073;-49
2020/12/28 04:20:45;;;;;;;193.60;109.97;;;;;;;1.07;70.02;93339.17;1841485;77;21030;-48
2020/12/28 04:23:13;;;;;;;211.62;114.95;;;;;;;1.16;70.05;93342.82;1841481;78;21133;-48
2020/12/28 04:25:41;;;;;;;208.02;110.60;;;;;;;1.28;70.06;93339.45;1841513;78;21154;-47
2020/12/28 04:28:09;;;;;;;218.05;117.30;;;;;;;1.39;69.63;93331.86;1841512;78;21179;-49
2020/12/28 04:30:36;;;;;;;211.37;109.70;;;;;;;1.38;69.71;93342.53;1841450;77;21054;-49
2020/12/28 04:33:04;;;;;;;257.07;133.10;;;;;;;1.44;69.78;93338.12;1841586;77;21497;-49
2020/12/28 04:35:32;;;;;;;270.82;136.70;;;;;;;1.53;69.55;93339.63;1841441;78;21121;-48
2020/12/28 04:38:01;;;;;;;236.05;130.10;;;;;;;1.55;69.64;93337.28;1839110;77;21049;-48
2020/12/28 04:40:30;;;;;;;206.00;113.20;;;;;;;1.63;69.42;93327.78;1808496;79;21184;-48
2020/12/28 04:42:58;;;;;;;166.20;91.40;;;;;;;1.63;69.39;93339.20;1781559;79;21061;-49
2020/12/28 04:45:26;;;;;;;150.72;87.60;;;;;;;1.64;69.38;93322.52;1798004;79;21077;-48
2020/12/28 04:47:54;;;;;;;159.05;85.62;;;;;;;1.69;69.27;93338.27;1797989;79;21065;-49
2020/12/28 04:50:22;;;;;;;299.25;154.25;;;;;;;1.73;69.22;93324.02;1798031;79;21108;-48
2020/12/28 04:52:51;;;;;;;234.45;128.18;;;;;;;1.68;69.00;93327.87;1797776;78;21201;-50
2020/12/28 04:55:19;;;;;;;225.55;121.00;;;;;;;1.63;69.29;93328.36;1797391;79;21064;-54
2020/12/28 04:57:46;;;;;;;244.68;133.65;;;;;;;1.65;69.10;93313.81;1797433;79;21060;-50
2020/12/28 05:00:14;;;;;;;226.80;124.50;;;;;;;1.70;68.97;93303.20;1797408;79;21073;-50
2020/12/28 05:02:42;;;;;;;227.13;122.67;;;;;;;1.70;68.69;93315.39;1797349;79;21124;-47
2020/12/28 05:05:10;;;;;;;209.07;117.22;;;;;;;1.64;68.77;93322.52;1797422;79;21351;-49
2020/12/28 05:07:39;;;;;;;220.12;115.28;;;;;;;1.57;68.66;93338.19;1797417;78;21596;-49
2020/12/28 05:10:07;;;;;;;195.62;108.37;;;;;;;1.47;68.81;93331.84;1797405;79;21050;-49
2020/12/28 05:12:35;;;;;;;187.68;106.00;;;;;;;1.40;69.04;93325.25;1797396;79;21065;-50
2020/12/28 05:15:08;;;;;;;169.02;97.35;;;;;;;1.36;69.12;93323.81;1797422;79;21148;-48
2020/12/28 05:17:37;;;;;;;178.75;102.90;;;;;;;1.26;69.19;93328.29;1797463;79;21505;-48
2020/12/28 05:20:04;;;;;;;190.10;104.00;;;;;;;1.21;69.55;93315.84;1797353;79;21080;-50
2020/12/28 05:22:32;;;;;;;190.22;105.15;;;;;;;1.13;69.55;93320.66;1797384;79;21105;-49
2020/12/28 05:25:00;;;;;;;205.37;113.15;;;;;;;1.11;69.82;93324.98;1797421;79;21144;-52
2020/12/28 05:27:29;;;;;;;206.43;112.92;;;;;;;1.03;69.91;93323.03;1797436;79;21065;-52
2020/12/28 05:29:57;;;;;;;203.55;114.50;;;;;;;0.95;70.37;93314.88;1797402;78;21368;-51
2020/12/28 05:32:25;;;;;;;213.22;117.40;;;;;;;0.99;70.52;93312.84;1797400;78;21533;-51
2020/12/28 05:34:54;;;;;;;215.07;118.87;;;;;;;1.07;70.52;93320.22;1797416;79;21068;-51
2020/12/28 05:37:23;;;;;;;219.95;127.07;;;;;;;1.15;70.50;93312.88;1797400;79;21140;-50
2020/12/28 05:39:50;;;;;;;180.95;104.03;;;;;;;1.23;70.42;93331.84;1756753;79;21128;-52
2020/12/28 05:42:19;;;;;;;194.67;109.70;;;;;;;1.27;69.96;93346.06;1802221;78;21318;-50
2020/12/28 05:44:47;;;;;;;172.55;98.15;;;;;;;1.17;69.81;93332.16;1807905;79;21076;-50
2020/12/28 05:47:17;;;;;;;144.02;80.67;;;;;;;1.06;69.99;93323.53;1807839;79;21101;-49
2020/12/28 05:49:46;;;;;;;162.62;92.12;;;;;;;1.00;70.15;93330.61;1807862;79;21077;-49
2020/12/28 05:52:16;;;;;;;195.25;107.95;;;;;;;0.91;70.29;93334.50;1807881;79;21078;-50
2020/12/28 05:54:44;;;;;;;228.55;122.90;;;;;;;0.81;70.57;93341.50;1807767;78;21199;-53
2020/12/28 05:57:12;;;;;;;232.10;126.95;;;;;;;0.76;70.46;93342.75;1807891;79;21521;-52
2020/12/28 05:59:41;;;;;;;234.00;127.85;;;;;;;0.73;70.55;93336.83;1807932;79;21141;-53
2020/12/28 06:02:09;;;;;;;201.62;115.82;;;;;;;0.74;70.47;93346.47;1807791;79;21062;-50
2020/12/28 06:04:38;;;;;;;221.47;127.92;;;;;;;0.67;70.68;93352.04;1754276;79;21093;-52
2020/12/28 06:07:06;;;;;;;268.48;154.03;;;;;;;0.60;70.66;93358.93;1807798;78;21196;-51
2020/12/28 06:09:34;;;;;;;244.13;136.57;;;;;;;0.57;71.26;93353.61;1807764;78;21184;-51
2020/12/28 06:12:09;;;;;;;242.03;136.68;;;;;;;0.65;71.52;93338.17;1807791;79;21109;-50
2020/12/28 06:14:39;;;;;;;246.47;138.57;;;;;;;0.77;71.63;93338.86;1807847;79;21105;-50
2020/12/28 06:17:09;;;;;;;220.55;131.15;;;;;;;0.81;71.24;93346.31;1807856;78;21070;-52
2020/12/28 06:19:38;;;;;;;204.50;120.22;;;;;;;0.83;71.55;93335.08;1807780;78;21368;-54
2020/12/28 06:22:23;;;;;;;226.73;130.67;;;;;;;0.87;71.38;93334.40;1807536;78;21096;-51
2020/12/28 06:25:04;;;;;;;220.73;128.97;;;;;;;0.89;71.51;93333.39;1807921;79;21129;-53
2020/12/28 06:27:42;;;;;;;254.72;138.50;;;;;;;0.95;71.31;93326.31;1837706;78;21171;-54
2020/12/28 06:30:15;;;;;;;253.83;141.15;;;;;;;1.00;71.22;93339.34;1839937;78;21159;-54
2020/12/28 06:32:44;;;;;;;305.83;160.30;;;;;;;1.02;71.03;93341.03;1841014;78;22017;-53
2020/12/28 06:35:14;;;;;;;410.30;198.28;;;;;;;0.98;70.72;93350.58;1840834;78;21115;-49
2020/12/28 06:37:48;;;;;;;301.88;157.62;;;;;;;0.91;70.92;93352.09;1840782;78;21132;-51
2020/12/28 06:40:32;;;;;;;351.65;181.60;;;;;;;0.90;70.48;93346.52;1840574;76;21080;-49
2020/12/28 06:43:12;;;;;;;360.23;187.30;;;;;;;0.72;70.41;93338.02;1843665;77;21196;-50
2020/12/28 06:45:43;;;;;;;318.05;164.00;;;;;;;0.57;70.72;93336.78;1846693;77;22002;-49
2020/12/28 06:48:22;;;;;;;341.05;184.80;;;;;;;0.46;70.90;93340.30;1846395;77;21186;-48
2020/12/28 06:50:52;;;;;;;396.87;191.90;;;;;;;0.35;71.30;93323.52;1841223;77;21207;-50
2020/12/28 06:53:24;;;;;;;382.07;198.02;;;;;;;0.30;71.48;93316.48;1812272;79;21164;-50
2020/12/28 06:55:52;;;;;;;451.40;227.43;;;;;;;0.32;71.64;93317.59;1812682;78;21136;-52
2020/12/28 06:58:20;;;;;;;413.48;214.90;;;;;;;0.35;71.73;93316.76;1812582;77;21204;-50
2020/12/28 07:00:48;;;;;;;344.35;185.75;;;;;;;0.43;72.04;93322.19;1810660;77;21117;-50
2020/12/28 07:03:17;;;;;;;307.57;164.50;;;;;;;0.58;71.67;93328.83;1758285;77;21114;-50
2020/12/28 07:05:44;;;;;;;331.10;180.40;;;;;;;0.65;71.43;93334.11;1810216;77;21108;-53
2020/12/28 07:08:18;;;;;;;349.35;183.62;;;;;;;0.69;71.25;93346.19;1810336;78;21133;-50
2020/12/28 07:10:46;;;;;;;349.77;196.78;;;;;;;0.72;71.25;93338.02;1784889;79;21199;-49
2020/12/28 07:13:14;;;;;;;356.23;202.68;;;;;;;0.84;71.32;93341.44;1809114;79;21062;-53
2020/12/28 07:15:42;;;;;;;338.90;190.53;;;;;;;0.99;71.32;93342.62;1810766;77;21095;-50
2020/12/28 07:18:10;;;;;;;384.10;211.00;;;;;;;1.16;71.04;93340.12;1805881;78;21138;-48
2020/12/28 07:20:38;;;;;;;427.85;230.70;;;;;;;1.30;70.89;93342.50;1811444;77;21070;-50
2020/12/28 07:23:06;;;;;;;393.55;216.70;;;;;;;1.35;70.51;93343.95;1807418;77;22199;-52
2020/12/28 07:25:34;;;;;;;380.65;192.10;;;;;;;1.27;70.19;93339.29;1810734;77;21186;-51
2020/12/28 07:28:05;;;;;;;470.40;261.12;;;;;;;1.17;70.26;93344.95;1811513;79;21132;-50
2020/12/28 07:30:33;;;;;;;362.85;196.40;;;;;;;1.06;70.46;93337.65;1816729;77;21845;-51
2020/12/28 07:33:02;;;;;;;426.27;238.30;;;;;;;1.01;70.66;93343.00;1808521;79;21069;-50
2020/12/28 07:35:30;;;;;;;427.65;244.93;;;;;;;0.88;70.99;93356.22;1810136;77;21269;-52
2020/12/28 07:37:58;;;;;;;435.70;242.03;;;;;;;0.84;71.18;93346.84;1814869;77;21989;-50
2020/12/28 07:40:26;;;;;;;474.65;284.30;;;;;;;0.91;71.59;93333.73;1811715;77;21124;-50
2020/12/28 07:42:55;;;;;;;433.87;255.52;;;;;;;1.04;71.55;93332.67;1806372;79;21840;-51
2020/12/28 07:45:26;;;;;;;387.63;220.12;;;;;;;1.16;71.51;93337.41;1799417;79;21141;-53
2020/12/28 07:47:57;;;;;;;390.90;221.57;;;;;;;1.24;71.90;93332.02;1803324;79;21095;-49
2020/12/28 07:50:24;;;;;;;405.22;236.03;;;;;;;1.45;71.74;93339.64;1799729;78;22237;-50
2020/12/28 07:52:58;;;;;;;341.68;193.28;;;;;;;1.64;71.79;93323.87;1785224;79;21095;-50
2020/12/28 07:55:28;;;;;;;386.30;214.27;;;;;;;1.82;71.59;93323.62;1794933;79;21059;-51
2020/12/28 07:58:31;;;;;;;425.07;238.15;;;;;;;1.89;71.04;93322.07;1797569;78;21103;-50
2020/12/28 08:01:02;;;;;;;376.07;210.15;;;;;;;1.95;70.89;93314.94;1804490;78;22290;-52
2020/12/28 08:03:35;;;;;;;262.25;147.60;;;;;;;2.11;70.46;93313.54;1801743;78;21153;-52
2020/12/28 08:06:09;;;;;;;233.35;136.20;;;;;;;2.19;70.27;93318.19;1796992;79;21117;-53
2020/12/28 08:08:37;;;;;;;247.78;137.60;;;;;;;2.18;70.19;93308.52;1788668;79;21297;-53
2020/12/28 08:11:05;;;;;;;233.40;135.78;;;;;;;2.27;70.02;93315.44;1799772;78;21200;-49
2020/12/28 08:13:35;;;;;;;247.40;141.68;;;;;;;2.33;70.19;93316.45;1806020;79;22184;-50
2020/12/28 08:16:16;;;;;;;300.75;172.95;;;;;;;2.39;69.95;93327.70;1804722;78;21250;-49
2020/12/28 08:18:54;;;;;;;263.62;151.18;;;;;;;2.43;69.91;93316.73;1793384;79;21719;-52
2020/12/28 08:21:23;;;;;;;167.93;105.60;;;;;;;2.57;69.72;93317.70;1792065;79;21131;-53
2020/12/28 08:23:57;;;;;;;202.25;123.67;;;;;;;2.64;69.74;93324.27;1798592;79;21597;-55
2020/12/28 08:26:29;;;;;;;244.68;145.77;;;;;;;2.77;69.80;93314.98;1791411;78;21438;-52
2020/12/28 08:28:59;;;;;;;258.13;152.47;;;;;;;3.05;68.64;93309.31;1796137;78;21176;-50
2020/12/28 08:31:36;;;;;;;222.70;133.27;;;;;;;3.05;68.64;93309.31;1759429;79;21508;-47
2020/12/28 08:34:14;;;;;;;249.67;151.35;;;;;;;3.04;68.68;93309.16;1789368;79;21113;-54
2020/12/28 08:36:52;;;;;;;202.00;121.72;;;;;;;3.00;68.69;93304.40;1796679;78;21138;-52
2020/12/28 08:39:23;;;;;;;168.13;106.10;;;;;;;2.98;68.93;93297.28;1792230;79;21260;-52
2020/12/28 08:41:59;;;;;;;122.40;81.02;;;;;;;2.97;69.31;93293.05;1796854;78;21233;-54
2020/12/28 08:44:33;;;;;;;156.85;97.53;;;;;;;3.11;69.12;93296.70;1806158;77;21187;-54
2020/12/28 08:47:12;;;;;;;146.45;92.53;;;;;;;3.11;68.97;93292.63;1797061;78;21547;-53
2020/12/28 08:49:41;;;;;;;153.47;95.57;;;;;;;3.12;69.15;93283.28;1800392;78;21190;-52
2020/12/28 08:52:15;;;;;;;169.55;105.95;;;;;;;3.30;69.27;93287.56;1742504;80;21425;-53
2020/12/28 08:54:44;;;;;;;;;;;;;;;3.63;68.85;93293.07;1757541;81;21146;-50
2020/12/28 08:57:19;;;;;;;159.57;97.42;;;;;;;3.99;67.97;93289.92;1754660;80;20246;-52
2020/12/28 08:59:47;;;;;;;170.95;105.65;;;;;;;4.10;67.56;93291.10;1741686;82;21174;-50
2020/12/28 09:02:17;;;;;;;217.80;135.60;;;;;;;4.16;67.30;93283.89;1738144;82;21173;-54
2020/12/28 09:04:45;;;;;;;167.47;100.15;;;;;;;4.37;67.11;93280.41;1754189;80;21709;-54
2020/12/28 09:07:14;;;;;;;174.57;107.10;;;;;;;4.74;66.62;93275.36;1748027;81;21225;-51
2020/12/28 09:09:44;;;;;;;158.65;98.27;;;;;;;4.98;65.70;93282.45;1741357;81;21622;-53
2020/12/28 09:12:12;;;;;;;198.45;122.37;;;;;;;4.98;65.42;93262.77;1734997;81;21673;-53
2020/12/28 09:14:40;;;;;;;190.62;118.67;;;;;;;4.99;65.49;93247.93;1746472;80;21107;-51
2020/12/28 09:17:10;;;;;;;189.20;114.25;;;;;;;5.17;65.47;93254.08;1739600;80;21578;-53
2020/12/28 09:19:38;;;;;;;174.55;106.72;;;;;;;5.31;65.14;93255.64;1746001;80;21661;-52
2020/12/28 09:22:06;;;;;;;177.97;110.97;;;;;;;5.43;65.14;93243.87;1730013;81;21161;-52
2020/12/28 09:24:34;;;;;;;117.70;75.70;;;;;;;5.55;65.35;93237.52;1729009;80;21168;-53
2020/12/28 09:27:02;;;;;;;152.65;96.78;;;;;;;5.70;65.28;93245.28;1712681;82;21185;-52
2020/12/28 09:29:30;;;;;;;131.70;87.08;;;;;;;5.95;65.25;93234.14;1730842;80;21384;-52
2020/12/28 09:31:58;;;;;;;184.35;118.40;;;;;;;6.32;64.58;93239.75;1748140;80;21220;-53
2020/12/28 09:34:26;;;;;;;209.05;130.57;;;;;;;6.60;63.94;93230.30;1743025;80;21665;-51
2020/12/28 09:37:03;;;;;;;213.75;139.52;;;;;;;6.91;63.16;93229.47;1744158;80;21169;-51
2020/12/28 09:39:31;;;;;;;162.60;108.83;;;;;;;7.33;62.16;93224.16;1753371;80;21200;-52
2020/12/28 09:41:58;;;;;;;133.85;89.72;;;;;;;7.61;60.80;93215.94;1750903;80;22049;-51
2020/12/28 09:44:26;;;;;;;133.40;84.42;;;;;;;7.64;60.16;93219.88;1754690;80;21665;-50
2020/12/28 09:46:54;;;;;;;130.67;83.40;;;;;;;7.47;60.68;93218.76;1757279;80;21181;-53
2020/12/28 09:49:23;;;;;;;157.80;101.75;;;;;;;7.33;60.50;93216.69;1731043;80;21185;-49
2020/12/28 09:51:54;;;;;;;164.97;99.87;;;;;;;7.12;60.84;93220.44;1756776;80;21514;-49
2020/12/28 09:54:23;;;;;;;152.47;94.80;;;;;;;7.29;61.24;93216.11;1756685;80;22307;-58
2020/12/28 09:56:53;;;;;;;129.45;76.75;;;;;;;7.66;60.73;93197.53;1754105;80;21169;-50
2020/12/28 09:59:21;;;;;;;112.37;68.02;;;;;;;7.96;60.40;93191.70;1751787;80;21368;-51
2020/12/28 10:01:50;;;;;;;128.00;82.65;;;;;;;7.92;59.95;93184.88;1756033;81;21243;-50
2020/12/28 10:04:18;;;;;;;136.25;86.25;;;;;;;7.84;60.28;93174.89;1751049;81;21198;-50
2020/12/28 10:06:46;;;;;;;175.05;93.72;;;;;;;8.02;60.01;93187.08;1751708;81;22200;-50
2020/12/28 10:09:14;;;;;;;147.37;81.37;;;;;;;8.36;59.45;93182.41;1756064;81;21569;-51
2020/12/28 10:11:43;;;;;;;153.82;82.50;;;;;;;8.64;58.96;93181.53;1752914;81;21127;-51
2020/12/28 10:14:11;;;;;;;119.97;65.97;;;;;;;8.88;59.12;93167.25;1749992;81;21177;-51
2020/12/28 10:16:39;;;;;;;148.15;80.92;;;;;;;9.23;58.54;93149.48;1758082;81;21058;-54
2020/12/28 10:19:08;;;;;;;141.47;79.53;;;;;;;9.57;57.76;93150.83;1742224;81;21387;-50
2020/12/28 10:21:36;;;;;;;149.15;89.70;;;;;;;9.70;57.42;93137.53;1725532;82;21642;-50
2020/12/28 10:24:04;;;;;;;130.05;74.07;;;;;;;9.80;57.36;93138.16;1720134;83;21509;-52
2020/12/28 10:26:33;;;;;;;94.47;58.08;;;;;;;9.97;57.02;93141.22;1739930;80;21194;-52
2020/12/28 10:29:01;;;;;;;113.83;70.42;;;;;;;10.16;56.74;93118.37;1738266;81;21122;-54
2020/12/28 10:31:30;;;;;;;143.47;85.03;;;;;;;10.39;56.53;93120.84;1739860;80;21237;-51
2020/12/28 10:33:58;;;;;;;129.63;78.90;;;;;;;10.57;55.83;93115.66;1737283;81;21139;-53
2020/12/28 10:36:28;;;;;;;124.30;76.55;;;;;;;10.71;55.68;93110.03;1722644;82;21205;-53
2020/12/28 10:38:59;;;;;;;89.60;57.17;;;;;;;10.92;55.54;93101.22;1739249;80;21194;-52
2020/12/28 10:41:29;;;;;;;76.05;48.92;;;;;;;11.11;54.53;93106.48;1745027;81;21079;-52
2020/12/28 10:43:59;;;;;;;78.83;47.40;;;;;;;10.96;54.56;93094.13;1734640;81;22756;-52
2020/12/28 10:46:30;;;;;;;93.72;61.10;;;;;;;10.86;55.02;93090.80;1724875;81;21237;-52
2020/12/28 10:49:01;;;;;;;95.30;61.25;;;;;;;11.06;54.97;93081.68;1719556;82;21173;-52
2020/12/28 10:51:29;;;;;;;110.55;74.58;;;;;;;11.28;55.03;93071.57;1738446;81;21197;-55
2020/12/28 10:53:57;;;;;;;113.42;78.00;;;;;;;11.56;53.93;93063.49;1742648;80;21216;-54
2020/12/28 10:56:29;;;;;;;106.97;73.05;;;;;;;11.97;52.65;93058.53;1748348;80;22282;-53
2020/12/28 10:58:58;;;;;;;95.28;67.32;;;;;;;12.43;50.96;93067.15;1745937;80;21916;-51
2020/12/28 11:01:27;;;;;;;109.10;75.57;;;;;;;12.82;50.12;93056.89;1745641;80;21199;-51
2020/12/28 11:03:56;;;;;;;89.75;60.15;;;;;;;12.99;49.94;93054.30;1743054;80;21154;-52
2020/12/28 11:06:24;;;;;;;105.15;72.45;;;;;;;12.92;49.46;93042.37;1749697;80;21252;-54
2020/12/28 11:08:52;;;;;;;112.15;74.72;;;;;;;12.80;49.87;93046.98;1741121;82;21333;-51
2020/12/28 11:11:22;;;;;;;118.72;78.35;;;;;;;12.80;50.08;93042.23;1743432;80;21186;-58
2020/12/28 11:13:51;;;;;;;91.32;62.78;;;;;;;13.00;49.47;93045.38;1762420;80;21205;-52
2020/12/28 11:16:26;;;;;;;103.87;72.25;;;;;;;13.23;49.43;93048.25;1772569;80;21193;-50
2020/12/28 11:18:55;;;;;;;106.12;72.08;;;;;;;13.38;49.08;93055.61;1772291;80;21153;-53
2020/12/28 11:21:24;;;;;;;89.37;60.85;;;;;;;13.37;48.78;93049.34;1772732;80;21186;-54
2020/12/28 11:26:36;;;;;;;118.53;76.28;;;;;;;13.20;49.86;93049.23;1871871;76;22694;-52
2020/12/28 11:29:05;;;;;;;127.95;86.63;;;;;;;13.40;49.11;93032.38;1839965;78;21066;-51
2020/12/28 11:31:34;;;;;;;94.47;67.40;;;;;;;13.66;48.68;93027.29;1839936;78;21358;-53
2020/12/28 11:34:02;;;;;;;83.82;59.90;;;;;;;13.98;48.74;93024.27;1839701;78;21194;-53
2020/12/28 11:36:30;;;;;;;85.77;60.75;;;;;;;14.52;47.93;93019.83;1839999;77;21204;-51